Time;durP1;ratioP1;P1;durP2;ratioP2;P2;SDS_P1;SDS_P2;PMS_P1;PMS_P2;Temp;Humidity;BMP_temperature;BMP_pressure;BME280_temperature;BME280_humidity;BME280_pressure;Samples;Min_cycle;Max_cycle;Signal;HPM_P1;HPM_P2
2021/03/05 00:00:00;;;;;;;;;;;18.30;40.00;;;;;;500911;237;1079;-48
2021/03/05 00:02:01;;;;;;;;;;;18.30;40.90;;;;;;500408;237;1213;-48
2021/03/05 00:04:03;;;;;;;;;;;18.30;40.90;;;;;;500810;237;1046;-48
2021/03/05 00:06:04;;;;;;;;;;;18.30;40.70;;;;;;500832;237;2121;-48
2021/03/05 00:08:05;;;;;;;;;;;18.30;40.30;;;;;;500397;237;1215;-48
2021/03/05 00:10:07;;;;;;;;;;;18.30;40.90;;;;;;500875;237;1097;-48
2021/03/05 00:12:08;;;;;;;;;;;18.30;40.90;;;;;;500682;237;1081;-47
2021/03/05 00:14:09;;;;;;;;;;;18.30;41.20;;;;;;500377;237;1025;-48
2021/03/05 00:16:10;;;;;;;;;;;18.30;41.30;;;;;;500617;237;1236;-48
2021/03/05 00:18:12;;;;;;;;;;;18.30;41.90;;;;;;500593;237;1089;-48
2021/03/05 00:20:13;;;;;;;;;;;18.30;41.30;;;;;;500656;237;1013;-48
2021/03/05 00:22:14;;;;;;;;;;;18.30;41.10;;;;;;500316;237;1050;-48
2021/03/05 00:24:15;;;;;;;;;;;18.30;41.10;;;;;;500575;237;1029;-47
2021/03/05 00:26:17;;;;;;;;;;;18.30;41.30;;;;;;500718;237;2125;-48
2021/03/05 00:28:18;;;;;;;;;;;18.30;41.10;;;;;;500860;237;1037;-48
2021/03/05 00:30:19;;;;;;;;;;;18.30;40.60;;;;;;500849;237;1252;-47
2021/03/05 00:32:21;;;;;;;;;;;18.30;41.40;;;;;;500399;237;1200;-48
2021/03/05 00:34:22;;;;;;;;;;;18.30;41.30;;;;;;500830;237;1060;-47
2021/03/05 00:36:23;;;;;;;;;;;18.30;41.30;;;;;;500755;237;1228;-47
2021/03/05 00:38:24;;;;;;;;;;;18.30;41.30;;;;;;500871;237;1173;-48
2021/03/05 00:40:26;;;;;;;;;;;18.30;41.50;;;;;;500875;237;1027;-48
2021/03/05 00:42:27;;;;;;;;;;;18.20;41.80;;;;;;500532;237;1486;-48
2021/03/05 00:44:28;;;;;;;;;;;18.20;42.30;;;;;;500402;237;1048;-48
2021/03/05 00:46:29;;;;;;;;;;;18.20;42.50;;;;;;500678;237;2124;-47
2021/03/05 00:48:31;;;;;;;;;;;18.20;42.60;;;;;;500775;237;1105;-48
2021/03/05 00:50:32;;;;;;;;;;;18.20;43.10;;;;;;500778;237;1469;-48
2021/03/05 00:52:33;;;;;;;;;;;18.20;42.90;;;;;;500409;237;1071;-47
2021/03/05 00:54:35;;;;;;;;;;;18.20;43.10;;;;;;500396;237;1060;-48
2021/03/05 00:56:36;;;;;;;;;;;18.20;43.80;;;;;;500372;237;1334;-48
2021/03/05 00:58:37;;;;;;;;;;;18.20;43.10;;;;;;500875;237;1135;-48
2021/03/05 01:00:38;;;;;;;;;;;18.30;43.30;;;;;;500567;237;1149;-48
2021/03/05 01:02:40;;;;;;;;;;;18.20;43.10;;;;;;500505;237;1201;-48
2021/03/05 01:04:41;;;;;;;;;;;18.20;43.90;;;;;;500389;237;1195;-48
2021/03/05 01:06:42;;;;;;;;;;;18.20;43.60;;;;;;500758;237;2172;-47
2021/03/05 01:08:44;;;;;;;;;;;18.20;43.50;;;;;;500604;237;1036;-48
2021/03/05 01:10:45;;;;;;;;;;;18.20;43.90;;;;;;500847;237;1144;-48
2021/03/05 01:12:46;;;;;;;;;;;18.20;43.30;;;;;;500487;237;1223;-48
2021/03/05 01:14:47;;;;;;;;;;;18.40;42.80;;;;;;500801;237;1027;-48
2021/03/05 01:16:49;;;;;;;;;;;18.70;42.90;;;;;;500638;237;1295;-48
2021/03/05 01:18:50;;;;;;;;;;;18.90;42.70;;;;;;500880;237;1067;-48
2021/03/05 01:20:51;;;;;;;;;;;19.10;42.00;;;;;;500855;237;1507;-48
2021/03/05 01:22:52;;;;;;;;;;;19.40;39.70;;;;;;500349;237;1133;-48
2021/03/05 01:24:54;;;;;;;;;;;19.40;37.80;;;;;;500897;237;1084;-48
2021/03/05 01:26:55;;;;;;;;;;;19.50;37.70;;;;;;500790;237;2187;-48
2021/03/05 01:28:56;;;;;;;;;;;19.60;38.10;;;;;;500533;237;1121;-48
2021/03/05 01:30:58;;;;;;;;;;;19.70;37.10;;;;;;500751;237;1263;-48
2021/03/05 01:32:59;;;;;;;;;;;19.80;37.40;;;;;;500560;237;1140;-48
2021/03/05 01:35:00;;;;;;;;;;;19.90;37.20;;;;;;500566;237;1315;-48
2021/03/05 01:37:01;;;;;;;;;;;19.90;37.00;;;;;;500395;237;1039;-48
2021/03/05 01:39:03;;;;;;;;;;;19.90;37.00;;;;;;500694;237;1322;-48
2021/03/05 01:41:04;;;;;;;;;;;20.00;36.90;;;;;;500376;237;1068;-48
2021/03/05 01:43:05;;;;;;;;;;;20.00;36.80;;;;;;500420;237;1054;-48
2021/03/05 01:45:07;;;;;;;;;;;20.10;36.80;;;;;;500569;237;1066;-48
2021/03/05 01:47:08;;;;;;;;;;;20.10;36.70;;;;;;500399;237;2181;-48
2021/03/05 01:49:09;;;;;;;;;;;20.20;36.70;;;;;;500510;237;966;-48
2021/03/05 01:51:10;;;;;;;;;;;20.20;36.50;;;;;;500850;237;1032;-48
2021/03/05 01:53:12;;;;;;;;;;;20.20;36.30;;;;;;500868;237;1177;-47
2021/03/05 01:55:13;;;;;;;;;;;20.30;36.40;;;;;;500655;237;1091;-48
2021/03/05 01:57:14;;;;;;;;;;;20.30;36.40;;;;;;500870;237;1141;-48
2021/03/05 01:59:15;;;;;;;;;;;20.30;36.30;;;;;;500459;237;1077;-48
2021/03/05 02:01:17;;;;;;;;;;;20.30;36.20;;;;;;500850;237;1042;-48
2021/03/05 02:03:18;;;;;;;;;;;20.40;36.20;;;;;;500610;237;1114;-48
2021/03/05 02:05:19;;;;;;;;;;;20.40;36.20;;;;;;500854;237;1062;-48
2021/03/05 02:07:21;;;;;;;;;;;20.40;36.20;;;;;;500507;237;2121;-48
2021/03/05 02:09:22;;;;;;;;;;;20.40;36.10;;;;;;500898;237;1034;-48
2021/03/05 02:11:23;;;;;;;;;;;20.40;36.00;;;;;;500787;237;1069;-48
2021/03/05 02:13:24;;;;;;;;;;;20.50;35.90;;;;;;500612;237;1036;-48
2021/03/05 02:15:26;;;;;;;;;;;20.50;36.00;;;;;;500625;237;1046;-48
2021/03/05 02:17:27;;;;;;;;;;;20.50;35.70;;;;;;500484;237;1151;-48
2021/03/05 02:19:29;;;;;;;;;;;20.50;35.90;;;;;;500435;237;1024;-48
2021/03/05 02:21:31;;;;;;;;;;;20.60;35.90;;;;;;500538;237;1033;-48
2021/03/05 02:23:31;;;;;;;;;;;20.50;36.00;;;;;;500395;237;2406;-48
2021/03/05 02:25:33;;;;;;;;;;;20.60;36.10;;;;;;500596;237;1131;-48
2021/03/05 02:27:34;;;;;;;;;;;20.60;36.00;;;;;;500586;237;2124;-48
2021/03/05 02:29:35;;;;;;;;;;;20.60;36.10;;;;;;500349;237;1038;-48
2021/03/05 02:31:36;;;;;;;;;;;20.60;36.10;;;;;;500413;237;1023;-48
2021/03/05 02:33:38;;;;;;;;;;;20.60;36.10;;;;;;500633;237;1198;-48
2021/03/05 02:35:39;;;;;;;;;;;20.70;36.30;;;;;;500491;237;1071;-48
2021/03/05 02:37:40;;;;;;;;;;;20.70;36.40;;;;;;500831;237;1041;-48
2021/03/05 02:39:41;;;;;;;;;;;20.70;36.50;;;;;;500507;237;1111;-48
2021/03/05 02:41:43;;;;;;;;;;;20.70;36.60;;;;;;500361;237;1232;-48
2021/03/05 02:43:44;;;;;;;;;;;20.70;36.60;;;;;;500500;237;1240;-48
2021/03/05 02:45:45;;;;;;;;;;;20.70;36.70;;;;;;500872;237;1141;-48
2021/03/05 02:47:47;;;;;;;;;;;20.70;36.70;;;;;;500835;237;2121;-48
2021/03/05 02:49:48;;;;;;;;;;;20.80;36.80;;;;;;500897;237;1398;-48
2021/03/05 02:51:49;;;;;;;;;;;20.80;36.80;;;;;;500610;237;1182;-48
2021/03/05 02:53:50;;;;;;;;;;;20.80;36.90;;;;;;500529;237;1066;-48
2021/03/05 02:55:52;;;;;;;;;;;20.80;37.00;;;;;;500557;237;1443;-48
2021/03/05 02:57:53;;;;;;;;;;;20.80;36.70;;;;;;500391;237;1090;-47
2021/03/05 02:59:54;;;;;;;;;;;20.80;36.80;;;;;;500622;237;1029;-48
2021/03/05 03:01:55;;;;;;;;;;;20.90;37.10;;;;;;500476;237;1149;-48
2021/03/05 03:03:57;;;;;;;;;;;20.90;37.30;;;;;;500431;237;1399;-48
2021/03/05 03:05:58;;;;;;;;;;;20.90;38.00;;;;;;500547;237;1277;-48
2021/03/05 03:07:59;;;;;;;;;;;20.90;38.00;;;;;;500859;237;2104;-48
2021/03/05 03:10:01;;;;;;;;;;;20.90;38.40;;;;;;500906;237;1035;-48
2021/03/05 03:12:02;;;;;;;;;;;20.90;40.30;;;;;;500406;237;1113;-48
2021/03/05 03:14:03;;;;;;;;;;;20.90;39.50;;;;;;500919;237;1026;-48
2021/03/05 03:16:04;;;;;;;;;;;20.90;39.70;;;;;;500313;237;1321;-48
2021/03/05 03:18:06;;;;;;;;;;;21.00;39.20;;;;;;500365;237;1262;-48
2021/03/05 03:20:07;;;;;;;;;;;21.00;40.20;;;;;;500343;237;1142;-48
2021/03/05 03:22:08;;;;;;;;;;;21.00;40.20;;;;;;500358;237;1048;-47
2021/03/05 03:24:10;;;;;;;;;;;21.00;40.60;;;;;;500399;237;1063;-48
2021/03/05 03:26:11;;;;;;;;;;;21.00;39.80;;;;;;500328;237;1100;-48
2021/03/05 03:28:12;;;;;;;;;;;21.00;40.80;;;;;;500683;237;2116;-48
2021/03/05 03:30:13;;;;;;;;;;;21.00;41.50;;;;;;500489;237;1010;-48
2021/03/05 03:32:15;;;;;;;;;;;21.00;43.00;;;;;;500481;237;1304;-48
2021/03/05 03:34:16;;;;;;;;;;;21.00;42.80;;;;;;500520;238;1852;-48
2021/03/05 03:36:19;;;;;;;;;;;21.10;41.60;;;;;;500149;238;1388;-48
2021/03/05 03:38:20;;;;;;;;;;;21.00;37.00;;;;;;500344;237;1150;-48
2021/03/05 03:40:21;;;;;;;;;;;21.00;42.10;;;;;;500426;237;1115;-48
2021/03/05 03:42:23;;;;;;;;;;;21.00;40.90;;;;;;500433;237;1175;-48
2021/03/05 03:44:24;;;;;;;;;;;21.00;41.30;;;;;;500363;237;1090;-47
2021/03/05 03:46:25;;;;;;;;;;;21.10;41.00;;;;;;500529;237;2133;-48
2021/03/05 03:48:27;;;;;;;;;;;21.10;39.90;;;;;;500633;237;1149;-48
2021/03/05 03:50:28;;;;;;;;;;;21.10;40.60;;;;;;500386;237;1185;-47
2021/03/05 03:52:29;;;;;;;;;;;21.10;40.20;;;;;;500331;237;1302;-48
2021/03/05 03:54:30;;;;;;;;;;;21.10;39.60;;;;;;500589;237;1030;-48
2021/03/05 03:56:32;;;;;;;;;;;21.10;39.60;;;;;;500656;237;1214;-48
2021/03/05 03:58:33;;;;;;;;;;;21.10;39.10;;;;;;500889;237;989;-48
2021/03/05 04:00:34;;;;;;;;;;;21.10;39.20;;;;;;500778;237;1371;-48
2021/03/05 04:02:36;;;;;;;;;;;21.10;38.30;;;;;;500461;237;1456;-47
2021/03/05 04:04:37;;;;;;;;;;;21.20;37.80;;;;;;500595;237;1034;-48
2021/03/05 04:06:38;;;;;;;;;;;21.20;37.90;;;;;;500331;237;2188;-48
2021/03/05 04:08:40;;;;;;;;;;;21.20;38.90;;;;;;500804;237;1039;-48
2021/03/05 04:10:44;;;;;;;;;;;21.20;38.80;;;;;;500865;237;1171;-48
2021/03/05 04:12:45;;;;;;;;;;;21.10;38.50;;;;;;500463;237;1095;-48
2021/03/05 04:14:46;;;;;;;;;;;21.20;39.80;;;;;;500737;237;961;-48
2021/03/05 04:16:47;;;;;;;;;;;21.20;39.30;;;;;;500566;237;1338;-48
2021/03/05 04:18:49;;;;;;;;;;;21.20;38.00;;;;;;500810;237;1029;-48
2021/03/05 04:20:50;;;;;;;;;;;21.20;38.50;;;;;;500398;237;1216;-48
2021/03/05 04:22:51;;;;;;;;;;;21.20;37.30;;;;;;500366;237;1228;-48
2021/03/05 04:24:52;;;;;;;;;;;21.20;38.80;;;;;;500351;237;1156;-48
2021/03/05 04:26:54;;;;;;;;;;;21.20;38.50;;;;;;500239;237;2195;-48
2021/03/05 04:28:55;;;;;;;;;;;21.20;38.20;;;;;;500800;237;1070;-47
2021/03/05 04:30:57;;;;;;;;;;;21.30;35.20;;;;;;500260;237;1345;-48
2021/03/05 04:32:58;;;;;;;;;;;21.20;38.00;;;;;;500263;237;1173;-48
2021/03/05 04:34:59;;;;;;;;;;;21.20;42.40;;;;;;500464;237;1114;-47
2021/03/05 04:37:00;;;;;;;;;;;21.20;45.60;;;;;;500547;237;1346;-48
2021/03/05 04:39:02;;;;;;;;;;;21.20;40.00;;;;;;500553;237;1022;-48
2021/03/05 04:41:03;;;;;;;;;;;21.20;36.10;;;;;;500663;237;1040;-47
2021/03/05 04:43:04;;;;;;;;;;;21.20;36.20;;;;;;500808;237;1049;-48
2021/03/05 04:45:06;;;;;;;;;;;21.20;36.20;;;;;;500575;237;1030;-48
2021/03/05 04:47:07;;;;;;;;;;;21.20;36.10;;;;;;500665;237;2129;-48
2021/03/05 04:49:08;;;;;;;;;;;21.20;36.30;;;;;;500743;237;1148;-48
2021/03/05 04:51:09;;;;;;;;;;;21.20;36.00;;;;;;500387;237;1145;-48
2021/03/05 04:53:11;;;;;;;;;;;21.30;35.90;;;;;;500321;237;1071;-48
2021/03/05 04:55:12;;;;;;;;;;;21.30;35.80;;;;;;500404;237;1028;-48
2021/03/05 04:57:13;;;;;;;;;;;21.30;35.90;;;;;;500650;237;1051;-48
2021/03/05 04:59:15;;;;;;;;;;;21.30;35.70;;;;;;500692;237;1077;-48
2021/03/05 05:01:16;;;;;;;;;;;21.30;35.70;;;;;;500394;237;1037;-48
2021/03/05 05:03:18;;;;;;;;;;;21.30;35.70;;;;;;500514;237;1240;-48
2021/03/05 05:05:19;;;;;;;;;;;21.30;35.60;;;;;;500684;234;1339;-48
2021/03/05 05:07:20;;;;;;;;;;;21.30;35.60;;;;;;500334;237;2188;-48
2021/03/05 05:09:21;;;;;;;;;;;21.30;35.40;;;;;;500607;237;1060;-47
2021/03/05 05:11:23;;;;;;;;;;;21.30;35.40;;;;;;500446;237;1065;-48
2021/03/05 05:13:24;;;;;;;;;;;21.30;35.40;;;;;;500400;237;1059;-48
2021/03/05 05:15:25;;;;;;;;;;;21.30;35.30;;;;;;500560;237;1086;-48
2021/03/05 05:17:26;;;;;;;;;;;21.30;35.30;;;;;;500373;237;1125;-48
2021/03/05 05:19:28;;;;;;;;;;;21.30;35.30;;;;;;500282;237;1068;-48
2021/03/05 05:21:29;;;;;;;;;;;21.30;35.20;;;;;;500257;237;1301;-48
2021/03/05 05:23:30;;;;;;;;;;;21.30;35.20;;;;;;500292;237;1128;-48
2021/03/05 05:25:32;;;;;;;;;;;21.30;35.10;;;;;;500324;237;1249;-48
2021/03/05 05:27:33;;;;;;;;;;;21.40;35.30;;;;;;500332;237;2129;-48
2021/03/05 05:29:34;;;;;;;;;;;21.30;35.20;;;;;;500351;237;1016;-48
2021/03/05 05:31:35;;;;;;;;;;;21.40;35.30;;;;;;500467;237;1211;-47
2021/03/05 05:33:37;;;;;;;;;;;21.40;35.30;;;;;;500263;237;1086;-48
2021/03/05 05:35:38;;;;;;;;;;;21.40;35.20;;;;;;500362;237;1333;-48
2021/03/05 05:37:39;;;;;;;;;;;21.40;35.20;;;;;;500381;237;1246;-48
2021/03/05 05:39:40;;;;;;;;;;;21.30;35.10;;;;;;500285;237;1100;-48
2021/03/05 05:41:42;;;;;;;;;;;21.40;35.20;;;;;;500278;237;1324;-48
2021/03/05 05:43:43;;;;;;;;;;;21.40;35.10;;;;;;500491;237;1036;-48
2021/03/05 05:45:44;;;;;;;;;;;21.40;35.10;;;;;;500282;237;1138;-48
2021/03/05 05:47:46;;;;;;;;;;;21.40;35.20;;;;;;500333;237;2184;-48
2021/03/05 05:49:47;;;;;;;;;;;21.40;35.20;;;;;;500355;237;1148;-48
2021/03/05 05:51:48;;;;;;;;;;;21.40;35.20;;;;;;500238;237;1394;-48
2021/03/05 05:53:49;;;;;;;;;;;21.40;35.20;;;;;;500497;237;1073;-47
2021/03/05 05:55:51;;;;;;;;;;;21.40;35.10;;;;;;500216;237;1080;-48
2021/03/05 05:57:52;;;;;;;;;;;21.40;35.10;;;;;;500776;237;1073;-48
2021/03/05 05:59:53;;;;;;;;;;;21.40;35.10;;;;;;500132;237;2337;-48
2021/03/05 06:01:55;;;;;;;;;;;21.40;35.10;;;;;;500249;237;1059;-48
2021/03/05 06:03:56;;;;;;;;;;;21.50;35.20;;;;;;500164;237;1206;-47
2021/03/05 06:05:57;;;;;;;;;;;21.40;35.10;;;;;;500023;237;1259;-48
2021/03/05 06:07:58;;;;;;;;;;;21.50;35.10;;;;;;500083;237;2152;-47
2021/03/05 06:10:00;;;;;;;;;;;21.50;35.10;;;;;;500040;237;1139;-48
2021/03/05 06:12:01;;;;;;;;;;;21.00;35.70;;;;;;500025;237;1073;-48
2021/03/05 06:14:02;;;;;;;;;;;20.60;36.50;;;;;;500180;237;1113;-48
2021/03/05 06:16:04;;;;;;;;;;;20.20;37.10;;;;;;500144;237;1203;-47
2021/03/05 06:18:05;;;;;;;;;;;20.10;37.60;;;;;;500308;237;1021;-48
2021/03/05 06:20:06;;;;;;;;;;;19.90;37.90;;;;;;500240;237;1086;-47
2021/03/05 06:22:07;;;;;;;;;;;19.70;38.30;;;;;;500165;237;1153;-48
2021/03/05 06:24:09;;;;;;;;;;;19.60;38.50;;;;;;500218;237;1043;-47
2021/03/05 06:26:10;;;;;;;;;;;19.50;38.70;;;;;;500154;237;1035;-48
2021/03/05 06:28:11;;;;;;;;;;;19.40;38.90;;;;;;500206;237;2188;-47
2021/03/05 06:30:13;;;;;;;;;;;19.30;39.00;;;;;;500012;237;1310;-48
2021/03/05 06:32:14;;;;;;;;;;;19.20;39.10;;;;;;499949;237;1333;-47
2021/03/05 06:34:15;;;;;;;;;;;19.20;39.30;;;;;;500105;237;1107;-47
2021/03/05 06:36:16;;;;;;;;;;;19.10;39.30;;;;;;500179;237;1679;-47
2021/03/05 06:38:18;;;;;;;;;;;19.10;39.40;;;;;;499994;237;1112;-47
2021/03/05 06:40:19;;;;;;;;;;;19.10;39.50;;;;;;500523;237;1147;-47
2021/03/05 06:42:20;;;;;;;;;;;19.00;39.60;;;;;;499920;237;1203;-47
2021/03/05 06:44:22;;;;;;;;;;;19.00;39.60;;;;;;500264;237;1112;-47
2021/03/05 06:46:23;;;;;;;;;;;18.90;39.60;;;;;;500049;237;1206;-47
2021/03/05 06:48:25;;;;;;;;;;;18.90;39.70;;;;;;499973;237;2171;-47
2021/03/05 06:50:26;;;;;;;;;;;18.90;39.90;;;;;;499972;237;1075;-47
2021/03/05 06:52:27;;;;;;;;;;;18.80;40.00;;;;;;500075;237;1218;-48
2021/03/05 06:54:29;;;;;;;;;;;18.80;40.00;;;;;;500155;237;1070;-47
2021/03/05 06:56:30;;;;;;;;;;;18.70;40.00;;;;;;500044;237;1304;-47
2021/03/05 06:58:31;;;;;;;;;;;18.70;40.10;;;;;;500525;237;1077;-47
2021/03/05 07:00:32;;;;;;;;;;;18.70;40.10;;;;;;499945;237;1483;-47
2021/03/05 07:02:34;;;;;;;;;;;18.60;40.10;;;;;;499989;237;1084;-47
2021/03/05 07:04:35;;;;;;;;;;;18.70;40.20;;;;;;500070;237;1077;-48
2021/03/05 07:06:36;;;;;;;;;;;18.60;40.20;;;;;;499836;237;1328;-47
2021/03/05 07:08:38;;;;;;;;;;;18.60;40.30;;;;;;500262;237;2129;-48
2021/03/05 07:10:39;;;;;;;;;;;18.50;40.30;;;;;;499804;237;1394;-48
2021/03/05 07:12:40;;;;;;;;;;;18.50;40.40;;;;;;500133;237;1095;-47
2021/03/05 07:14:41;;;;;;;;;;;18.50;40.50;;;;;;500136;237;1107;-47
2021/03/05 07:16:43;;;;;;;;;;;18.50;40.40;;;;;;500034;237;1148;-47
2021/03/05 07:18:44;;;;;;;;;;;18.40;40.50;;;;;;500022;237;1088;-48
2021/03/05 07:20:45;;;;;;;;;;;18.40;40.60;;;;;;500152;237;1137;-47
2021/03/05 07:22:47;;;;;;;;;;;18.40;40.60;;;;;;499911;237;1147;-47
2021/03/05 07:24:48;;;;;;;;;;;18.40;40.60;;;;;;499830;237;1191;-47
2021/03/05 07:27:00;;;;;;;;;;;18.40;40.70;;;;;;499777;237;1383;-47
2021/03/05 07:29:01;;;;;;;;;;;18.30;40.60;;;;;;499889;237;2236;-47
2021/03/05 07:31:02;;;;;;;;;;;18.30;40.60;;;;;;499778;237;1324;-48
2021/03/05 07:33:04;;;;;;;;;;;18.40;40.60;;;;;;499800;237;1105;-47
2021/03/05 07:35:05;;;;;;;;;;;18.30;40.50;;;;;;499824;237;1093;-47
2021/03/05 07:37:07;;;;;;;;;;;18.30;40.70;;;;;;499982;237;1171;-47
2021/03/05 07:39:08;;;;;;;;;;;18.30;40.70;;;;;;499838;237;1189;-48
2021/03/05 07:41:10;;;;;;;;;;;18.20;40.80;;;;;;499722;237;1321;-48
2021/03/05 07:43:11;;;;;;;;;;;18.10;40.80;;;;;;499830;237;1301;-47
2021/03/05 07:45:12;;;;;;;;;;;18.20;40.90;;;;;;500287;237;1052;-48
2021/03/05 07:47:14;;;;;;;;;;;18.20;40.80;;;;;;499755;237;1096;-47
2021/03/05 07:49:15;;;;;;;;;;;18.10;40.80;;;;;;499747;237;2199;-47
2021/03/05 07:51:16;;;;;;;;;;;18.10;41.00;;;;;;499650;237;1395;-47
2021/03/05 07:53:18;;;;;;;;;;;18.10;41.00;;;;;;499675;237;1220;-47
2021/03/05 07:55:19;;;;;;;;;;;18.10;40.90;;;;;;499714;237;1116;-47
2021/03/05 07:57:20;;;;;;;;;;;18.00;41.00;;;;;;499582;237;1195;-47
2021/03/05 07:59:21;;;;;;;;;;;18.00;41.10;;;;;;499510;237;1082;-47
2021/03/05 08:01:23;;;;;;;;;;;18.00;41.00;;;;;;499489;237;1196;-47
2021/03/05 08:03:25;;;;;;;;;;;18.00;41.10;;;;;;499390;237;1193;-47
2021/03/05 08:05:25;;;;;;;;;;;18.00;41.00;;;;;;499705;237;2139;-47
2021/03/05 08:07:27;;;;;;;;;;;17.90;39.80;;;;;;499672;237;1112;-47
2021/03/05 08:09:28;;;;;;;;;;;17.90;41.10;;;;;;499684;237;2149;-47
2021/03/05 08:11:29;;;;;;;;;;;17.90;41.20;;;;;;499591;237;1217;-47
2021/03/05 08:13:30;;;;;;;;;;;17.90;41.10;;;;;;499403;237;1157;-47
2021/03/05 08:15:32;;;;;;;;;;;17.90;41.20;;;;;;499510;237;1286;-47
2021/03/05 08:17:33;;;;;;;;;;;17.90;41.10;;;;;;499581;237;1113;-47
2021/03/05 08:19:34;;;;;;;;;;;17.90;41.10;;;;;;499712;237;1074;-47
2021/03/05 08:21:35;;;;;;;;;;;17.90;41.20;;;;;;499562;237;1404;-47
2021/03/05 08:23:37;;;;;;;;;;;17.90;41.30;;;;;;499800;237;1241;-47
2021/03/05 08:25:39;;;;;;;;;;;18.00;41.20;;;;;;499743;237;2052;-48
2021/03/05 08:27:40;;;;;;;;;;;18.20;40.70;;;;;;499624;237;1129;-48
2021/03/05 08:29:41;;;;;;;;;;;18.50;40.00;;;;;;499550;237;2125;-47
2021/03/05 08:31:44;;;;;;;;;;;18.90;39.40;;;;;;499746;237;1330;-48
2021/03/05 08:33:44;;;;;;;;;;;19.10;38.80;;;;;;499575;237;2170;-48
2021/03/05 08:35:45;;;;;;;;;;;19.40;36.80;;;;;;499511;237;1111;-47
2021/03/05 08:37:46;;;;;;;;;;;19.40;38.00;;;;;;499225;237;1187;-48
2021/03/05 08:39:47;;;;;;;;;;;19.50;37.80;;;;;;499585;237;1247;-48
2021/03/05 08:41:49;;;;;;;;;;;19.60;37.70;;;;;;499587;237;1137;-48
2021/03/05 08:43:50;;;;;;;;;;;19.70;37.50;;;;;;499532;237;1112;-48
2021/03/05 08:45:52;;;;;;;;;;;19.80;37.40;;;;;;499511;237;1170;-48
2021/03/05 08:47:53;;;;;;;;;;;19.80;37.20;;;;;;499457;237;1129;-48
2021/03/05 08:49:54;;;;;;;;;;;19.90;37.20;;;;;;499424;237;2121;-48
2021/03/05 08:51:56;;;;;;;;;;;19.90;37.10;;;;;;499522;237;1154;-48
2021/03/05 08:53:57;;;;;;;;;;;20.00;37.00;;;;;;499596;237;1236;-48
2021/03/05 08:55:58;;;;;;;;;;;20.00;36.90;;;;;;499524;237;1097;-48
2021/03/05 08:58:00;;;;;;;;;;;20.10;36.90;;;;;;499529;237;1075;-47
2021/03/05 09:00:01;;;;;;;;;;;20.10;36.80;;;;;;499653;237;1077;-47
2021/03/05 09:02:02;;;;;;;;;;;20.10;36.70;;;;;;499596;237;1097;-47
2021/03/05 09:04:04;;;;;;;;;;;20.20;36.70;;;;;;499493;237;1175;-48
2021/03/05 09:06:05;;;;;;;;;;;20.20;36.60;;;;;;499480;237;1079;-48
2021/03/05 09:08:06;;;;;;;;;;;20.20;36.60;;;;;;499373;237;1229;-48
2021/03/05 09:10:08;;;;;;;;;;;20.30;36.50;;;;;;499542;237;2128;-48
2021/03/05 09:12:09;;;;;;;;;;;20.30;36.50;;;;;;499584;237;1389;-47
2021/03/05 09:14:10;;;;;;;;;;;20.30;36.40;;;;;;499543;237;1068;-47
2021/03/05 09:16:12;;;;;;;;;;;20.40;36.40;;;;;;499551;237;1160;-47
2021/03/05 09:18:13;;;;;;;;;;;20.40;36.30;;;;;;499090;237;1195;-48
2021/03/05 09:20:14;;;;;;;;;;;20.40;36.30;;;;;;499464;237;1450;-48
2021/03/05 09:22:16;;;;;;;;;;;20.40;36.20;;;;;;499662;237;1053;-48
2021/03/05 09:24:17;;;;;;;;;;;20.50;36.20;;;;;;499692;237;1154;-48
2021/03/05 09:26:19;;;;;;;;;;;20.50;36.20;;;;;;499669;237;1255;-48
2021/03/05 09:28:20;;;;;;;;;;;20.50;36.10;;;;;;499706;237;2136;-48
2021/03/05 09:30:21;;;;;;;;;;;20.60;36.10;;;;;;499688;237;1098;-48
2021/03/05 09:32:23;;;;;;;;;;;20.50;36.10;;;;;;499613;237;1159;-48
2021/03/05 09:34:24;;;;;;;;;;;20.60;36.00;;;;;;499685;237;1265;-48
2021/03/05 09:36:26;;;;;;;;;;;20.60;36.00;;;;;;499599;237;1136;-48
2021/03/05 09:38:27;;;;;;;;;;;20.70;36.00;;;;;;499721;237;1182;-48
2021/03/05 09:40:29;;;;;;;;;;;20.70;36.00;;;;;;499663;237;1075;-48
2021/03/05 09:42:30;;;;;;;;;;;20.70;35.90;;;;;;499679;237;1230;-47
2021/03/05 09:44:31;;;;;;;;;;;20.70;36.00;;;;;;499635;237;1187;-47
2021/03/05 09:46:32;;;;;;;;;;;20.70;36.00;;;;;;499628;237;1288;-48
2021/03/05 09:48:34;;;;;;;;;;;20.70;35.90;;;;;;499599;237;2133;-47
2021/03/05 09:50:35;;;;;;;;;;;20.70;35.90;;;;;;499605;237;1286;-47
2021/03/05 09:52:36;;;;;;;;;;;20.70;35.80;;;;;;499638;237;1170;-48
2021/03/05 09:54:37;;;;;;;;;;;20.80;35.90;;;;;;499570;237;1109;-47
2021/03/05 09:56:39;;;;;;;;;;;20.70;35.70;;;;;;499705;237;1489;-48
2021/03/05 09:58:40;;;;;;;;;;;20.80;35.70;;;;;;499649;237;1054;-48
2021/03/05 10:00:41;;;;;;;;;;;20.80;35.80;;;;;;499589;237;1362;-48
2021/03/05 10:02:43;;;;;;;;;;;20.80;35.80;;;;;;499579;237;1229;-48
2021/03/05 10:04:44;;;;;;;;;;;20.80;35.70;;;;;;499516;237;1127;-48
2021/03/05 10:06:45;;;;;;;;;;;20.80;35.70;;;;;;499410;237;1298;-48
2021/03/05 10:08:47;;;;;;;;;;;20.80;35.70;;;;;;499644;237;2180;-48
2021/03/05 10:10:48;;;;;;;;;;;20.90;35.70;;;;;;499744;237;1483;-48
2021/03/05 10:12:49;;;;;;;;;;;20.90;35.70;;;;;;499709;237;1462;-48
2021/03/05 10:14:51;;;;;;;;;;;20.90;35.70;;;;;;499526;237;1132;-48
2021/03/05 10:16:52;;;;;;;;;;;20.90;35.60;;;;;;499634;237;1344;-48
2021/03/05 10:18:54;;;;;;;;;;;20.90;35.70;;;;;;499619;237;1111;-48
2021/03/05 10:20:55;;;;;;;;;;;20.90;35.70;;;;;;499515;237;1366;-48
2021/03/05 10:22:56;;;;;;;;;;;20.90;35.60;;;;;;499694;237;1220;-48
2021/03/05 10:24:57;;;;;;;;;;;20.90;35.60;;;;;;499666;237;1174;-48
2021/03/05 10:27:11;;;;;;;;;;;21.00;35.70;;;;;;499728;237;1630;-47
2021/03/05 10:29:13;;;;;;;;;;;20.90;35.60;;;;;;499611;237;2183;-48
2021/03/05 10:31:13;;;;;;;;;;;21.00;35.70;;;;;;499149;237;2363;-48
2021/03/05 10:33:15;;;;;;;;;;;21.00;35.60;;;;;;500065;237;1083;-48
2021/03/05 10:35:16;;;;;;;;;;;20.90;35.60;;;;;;499738;237;1095;-48
2021/03/05 10:37:17;;;;;;;;;;;21.00;35.60;;;;;;499545;237;1326;-48
2021/03/05 10:39:19;;;;;;;;;;;21.00;35.60;;;;;;499679;237;1223;-48
2021/03/05 10:41:20;;;;;;;;;;;21.00;34.30;;;;;;499592;237;1367;-48
2021/03/05 10:43:21;;;;;;;;;;;21.00;35.60;;;;;;500441;237;996;-48
2021/03/05 10:45:22;;;;;;;;;;;21.00;35.50;;;;;;499680;237;1084;-48
2021/03/05 10:47:24;;;;;;;;;;;21.00;35.60;;;;;;499603;237;1613;-47
2021/03/05 10:49:25;;;;;;;;;;;21.00;35.50;;;;;;499588;237;2177;-48
2021/03/05 10:51:26;;;;;;;;;;;21.00;35.50;;;;;;499267;237;1266;-47
2021/03/05 10:53:27;;;;;;;;;;;21.00;35.50;;;;;;499069;237;1390;-47
2021/03/05 10:55:29;;;;;;;;;;;21.10;35.60;;;;;;499333;237;1164;-48
2021/03/05 10:58:33;;;;;;;;;;;21.00;34.50;;;;;;507739;233;1090;-49
2021/03/05 11:00:35;;;;;;;;;;;21.10;35.60;;;;;;499664;238;1101;-48
2021/03/05 11:02:36;;;;;;;;;;;21.10;35.50;;;;;;499537;237;1099;-49
2021/03/05 11:04:37;;;;;;;;;;;21.10;35.40;;;;;;499802;237;1174;-49
2021/03/05 11:06:38;;;;;;;;;;;21.10;35.40;;;;;;499657;237;1331;-49
2021/03/05 11:08:40;;;;;;;;;;;21.10;35.40;;;;;;499721;237;1058;-49
2021/03/05 11:10:41;;;;;;;;;;;21.10;35.30;;;;;;499787;237;1083;-49
2021/03/05 11:12:42;;;;;;;;;;;21.20;35.30;;;;;;499811;237;1209;-49
2021/03/05 11:14:44;;;;;;;;;;;21.20;35.30;;;;;;499786;237;1083;-49
2021/03/05 11:16:45;;;;;;;;;;;21.20;35.30;;;;;;499756;237;2136;-49
2021/03/05 11:18:46;;;;;;;;;;;21.20;35.30;;;;;;499766;237;1273;-49
2021/03/05 11:20:47;;;;;;;;;;;21.20;35.40;;;;;;499353;237;1205;-49
2021/03/05 11:22:50;;;;;;;;;;;21.20;35.40;;;;;;500453;237;1098;-49
2021/03/05 11:24:50;;;;;;;;;;;21.20;35.40;;;;;;499727;237;1870;-50
2021/03/05 11:26:51;;;;;;;;;;;21.20;35.40;;;;;;499698;238;1216;-49
2021/03/05 11:28:52;;;;;;;;;;;21.20;35.40;;;;;;499823;237;1180;-49
2021/03/05 11:30:54;;;;;;;;;;;21.20;35.30;;;;;;499839;237;1172;-49
2021/03/05 11:32:55;;;;;;;;;;;21.20;35.30;;;;;;499713;237;1135;-47
2021/03/05 11:34:56;;;;;;;;;;;21.20;35.30;;;;;;499691;237;1045;-47
2021/03/05 11:36:58;;;;;;;;;;;21.20;35.30;;;;;;499824;237;2179;-47
2021/03/05 11:38:59;;;;;;;;;;;21.20;35.30;;;;;;499731;237;1121;-47
2021/03/05 11:41:00;;;;;;;;;;;21.20;35.30;;;;;;499718;237;1362;-47
2021/03/05 11:43:01;;;;;;;;;;;21.20;35.30;;;;;;499751;237;1375;-47
2021/03/05 11:45:05;;;;;;;;;;;21.20;35.30;;;;;;499692;237;1089;-47
2021/03/05 11:47:05;;;;;;;;;;;21.20;35.30;;;;;;499725;237;2000;-47
2021/03/05 11:49:06;;;;;;;;;;;21.20;35.30;;;;;;499582;237;1438;-47
2021/03/05 11:51:07;;;;;;;;;;;21.20;35.30;;;;;;499628;237;1214;-47
2021/03/05 11:53:09;;;;;;;;;;;21.30;35.30;;;;;;499835;237;1187;-47
2021/03/05 11:55:10;;;;;;;;;;;21.30;35.30;;;;;;499846;237;1196;-46
2021/03/05 11:57:11;;;;;;;;;;;21.30;35.20;;;;;;499557;237;2180;-47